createdAt,value
2018-12-27T00:01:54.265Z,60.70
2018-12-27T00:04:41.923Z,60.70
2018-12-27T00:07:40.890Z,60.80
2018-12-27T00:10:37.735Z,61.00
2018-12-27T00:13:33.763Z,60.90
2018-12-27T00:16:33.064Z,60.90
2018-12-27T00:19:29.400Z,60.70
2018-12-27T00:22:25.940Z,60.50
2018-12-27T00:25:22.979Z,60.20
2018-12-27T00:28:19.528Z,60.10
2018-12-27T00:31:15.975Z,60.00
2018-12-27T00:34:12.066Z,60.00
2018-12-27T00:37:08.118Z,60.10
2018-12-27T00:40:04.250Z,60.20
2018-12-27T00:43:00.480Z,60.20
2018-12-27T00:45:56.476Z,60.30
2018-12-27T00:48:52.534Z,60.30
2018-12-27T00:51:48.825Z,60.50
2018-12-27T00:54:45.005Z,60.60
2018-12-27T00:57:41.325Z,60.70
2018-12-27T01:00:40.436Z,60.70
2018-12-27T01:03:40.399Z,60.80
2018-12-27T01:06:36.686Z,60.90
2018-12-27T01:09:33.632Z,61.00
2018-12-27T01:12:33.527Z,61.00
2018-12-27T01:15:33.263Z,61.10
2018-12-27T01:18:30.008Z,61.20
2018-12-27T01:21:26.118Z,61.30
2018-12-27T01:24:22.362Z,61.60
2018-12-27T01:27:28.863Z,62.00
2018-12-27T01:30:21.690Z,62.40
2018-12-27T01:33:18.792Z,62.70
2018-12-27T01:36:13.980Z,63.30
2018-12-27T01:39:10.424Z,63.80
2018-12-27T01:42:06.415Z,64.30
2018-12-27T01:45:02.265Z,64.60
2018-12-27T01:47:58.264Z,64.90
2018-12-27T01:50:54.499Z,65.20
2018-12-27T01:53:50.520Z,65.50
2018-12-27T01:56:49.415Z,65.80
2018-12-27T01:59:45.643Z,65.80
2018-12-27T02:02:43.006Z,65.70
2018-12-27T02:05:39.631Z,65.90
2018-12-27T02:08:36.009Z,65.60
2018-12-27T02:11:32.109Z,65.40
2018-12-27T02:14:28.258Z,65.40
2018-12-27T02:17:24.287Z,65.60
2018-12-27T02:20:21.504Z,65.50
2018-12-27T02:23:17.549Z,65.50
2018-12-27T02:26:13.786Z,65.50
2018-12-27T02:29:09.616Z,65.40
2018-12-27T02:32:06.009Z,65.40
2018-12-27T02:35:02.580Z,65.40
2018-12-27T02:37:58.895Z,65.40
2018-12-27T02:40:55.759Z,65.40
2018-12-27T02:43:56.094Z,65.40
2018-12-27T02:46:49.151Z,65.40
2018-12-27T02:49:45.345Z,65.40
2018-12-27T02:52:41.611Z,65.30
2018-12-27T02:55:38.045Z,65.20
2018-12-27T02:58:33.945Z,65.20
2018-12-27T03:01:30.305Z,65.30
2018-12-27T03:04:26.513Z,65.30
2018-12-27T03:07:22.987Z,65.30
2018-12-27T03:10:19.423Z,65.30
2018-12-27T03:13:15.832Z,65.10
2018-12-27T03:16:11.892Z,65.00
2018-12-27T03:19:08.226Z,65.00
2018-12-27T03:22:04.957Z,64.90
2018-12-27T03:25:01.098Z,64.80
2018-12-27T03:27:58.235Z,64.70
2018-12-27T03:30:54.363Z,64.60
2018-12-27T03:33:52.881Z,64.90
2018-12-27T03:36:48.983Z,65.00
2018-12-27T03:39:45.182Z,64.90
2018-12-27T03:42:42.050Z,65.00
2018-12-27T03:45:38.280Z,64.70
2018-12-27T03:48:37.794Z,64.80
2018-12-27T03:51:34.129Z,64.70
2018-12-27T03:54:31.072Z,64.60
2018-12-27T03:57:31.200Z,64.70
2018-12-27T04:00:27.734Z,64.70
2018-12-27T04:03:23.663Z,64.60
2018-12-27T04:06:19.900Z,64.70
2018-12-27T04:09:18.065Z,64.60
2018-12-27T04:12:17.068Z,64.50
2018-12-27T04:15:16.470Z,64.50
2018-12-27T04:18:13.018Z,64.50
2018-12-27T04:21:08.883Z,64.70
2018-12-27T04:24:06.070Z,64.80
2018-12-27T04:27:02.106Z,65.50
2018-12-27T04:29:58.756Z,64.90
2018-12-27T04:32:57.955Z,64.70
2018-12-27T04:35:56.123Z,64.50
2018-12-27T04:38:51.896Z,64.60
2018-12-27T04:41:48.391Z,64.40
2018-12-27T04:44:45.341Z,64.30
2018-12-27T04:47:41.380Z,64.30
2018-12-27T04:50:37.395Z,64.30
2018-12-27T04:53:33.630Z,64.20
2018-12-27T04:56:29.661Z,64.20
2018-12-27T04:59:25.502Z,64.10
2018-12-27T05:02:22.431Z,64.20
2018-12-27T05:05:18.351Z,64.30
2018-12-27T05:08:56.258Z,64.00
2018-12-27T05:11:51.978Z,63.90
2018-12-27T05:14:48.565Z,63.90
2018-12-27T05:17:56.799Z,63.90
2018-12-27T05:20:53.861Z,64.00
2018-12-27T05:23:58.627Z,63.80
2018-12-27T05:26:56.075Z,63.60
2018-12-27T05:29:51.805Z,63.40
2018-12-27T05:32:48.845Z,63.40
2018-12-27T05:35:44.916Z,63.50
2018-12-27T05:38:41.036Z,63.40
2018-12-27T05:41:56.078Z,63.30
2018-12-27T05:44:53.591Z,63.30
2018-12-27T05:48:00.305Z,63.20
2018-12-27T05:50:53.396Z,62.90
2018-12-27T05:53:50.221Z,62.90
2018-12-27T05:56:47.123Z,62.70
2018-12-27T05:59:48.912Z,62.80
2018-12-27T06:03:08.255Z,63.10
2018-12-27T06:06:09.172Z,63.30
2018-12-27T06:09:07.306Z,63.10
2018-12-27T06:12:31.500Z,63.10
2018-12-27T06:15:28.881Z,62.70
2018-12-27T06:18:25.428Z,62.30
2018-12-27T06:21:24.715Z,61.70
2018-12-27T06:24:19.095Z,61.10
2018-12-27T06:27:18.981Z,61.30
2018-12-27T06:30:28.101Z,61.20
2018-12-27T06:33:21.970Z,61.30
2018-12-27T06:36:17.860Z,61.20
2018-12-27T06:39:14.906Z,60.70
2018-12-27T06:42:12.999Z,60.50
2018-12-27T06:45:13.855Z,60.50
2018-12-27T06:48:11.097Z,60.30
2018-12-27T06:51:08.589Z,60.30
2018-12-27T06:54:30.076Z,60.70
2018-12-27T06:57:30.325Z,61.10
2018-12-27T07:00:27.048Z,61.00
2018-12-27T07:03:26.910Z,61.20
2018-12-27T07:06:25.157Z,60.90
2018-12-27T07:09:22.446Z,60.50
2018-12-27T07:12:19.884Z,60.40
2018-12-27T07:15:18.494Z,60.00
2018-12-27T07:18:15.480Z,59.70
2018-12-27T07:21:14.052Z,59.80
2018-12-27T07:24:12.584Z,59.90
2018-12-27T07:27:09.121Z,59.70
2018-12-27T07:30:05.334Z,59.60
2018-12-27T07:33:01.658Z,59.10
2018-12-27T07:35:58.275Z,58.90
2018-12-27T07:39:11.450Z,58.70
2018-12-27T07:42:09.406Z,58.10
2018-12-27T07:45:06.642Z,57.70
2018-12-27T07:48:15.726Z,57.60
2018-12-27T07:51:12.375Z,57.60
2018-12-27T07:54:17.911Z,57.40
2018-12-27T07:57:30.869Z,57.30
2018-12-27T08:00:28.137Z,57.60
2018-12-27T08:18:31.693Z,57.90
2018-12-27T08:21:37.818Z,57.30
2018-12-27T08:24:36.834Z,57.20
2018-12-27T08:27:57.993Z,57.10
2018-12-27T08:31:04.619Z,57.00
2018-12-27T08:34:37.109Z,57.00
2018-12-27T08:37:11.713Z,57.00
2018-12-27T08:40:20.137Z,56.70
2018-12-27T08:43:28.248Z,56.30
2018-12-27T08:46:48.314Z,56.00
2018-12-27T08:49:39.707Z,55.70
2018-12-27T08:52:47.051Z,55.20
2018-12-27T08:55:56.715Z,55.10
2018-12-27T08:59:06.638Z,55.10
2018-12-27T09:02:15.648Z,55.00
2018-12-27T09:05:19.039Z,55.10
2018-12-27T09:08:18.863Z,55.10
2018-12-27T09:11:12.039Z,54.90
2018-12-27T09:14:21.051Z,54.60
2018-12-27T09:17:16.824Z,54.60
2018-12-27T09:20:14.659Z,54.70
2018-12-27T09:23:30.937Z,54.40
2018-12-27T09:26:27.532Z,54.40
2018-12-27T09:29:28.871Z,54.40
2018-12-27T09:32:27.440Z,54.10
2018-12-27T09:35:26.326Z,53.90
2018-12-27T09:38:19.391Z,53.80
2018-12-27T09:41:15.681Z,53.50
2018-12-27T09:44:13.996Z,53.40
2018-12-27T09:47:09.821Z,53.50
2018-12-27T09:50:05.749Z,53.20
2018-12-27T09:53:01.880Z,53.20
2018-12-27T09:55:57.611Z,53.10
2018-12-27T09:58:54.186Z,53.20
2018-12-27T10:01:49.868Z,53.00
2018-12-27T10:04:45.959Z,52.70
2018-12-27T10:07:41.821Z,52.50
2018-12-27T10:10:39.507Z,52.60
2018-12-27T10:13:35.559Z,52.70
2018-12-27T10:16:31.964Z,52.60
2018-12-27T10:19:27.767Z,52.50
2018-12-27T10:22:23.887Z,52.50
2018-12-27T10:25:20.636Z,52.70
2018-12-27T10:28:24.165Z,52.60
2018-12-27T10:31:27.405Z,52.70
2018-12-27T10:34:32.596Z,52.60
2018-12-27T10:37:36.819Z,52.70
2018-12-27T10:40:46.549Z,53.00
2018-12-27T10:43:54.355Z,53.00
2018-12-27T10:47:05.800Z,52.90
2018-12-27T10:50:14.126Z,53.00
2018-12-27T10:53:11.700Z,52.80
2018-12-27T10:56:14.964Z,52.70
2018-12-27T10:59:35.546Z,52.70
2018-12-27T11:02:39.501Z,52.70
2018-12-27T11:05:48.433Z,52.60
2018-12-27T11:08:46.784Z,52.70
2018-12-27T11:12:04.976Z,52.70
2018-12-27T11:15:10.914Z,52.70
2018-12-27T11:18:21.481Z,52.60
2018-12-27T11:21:26.157Z,52.70
2018-12-27T11:24:51.847Z,52.60
2018-12-27T11:31:50.388Z,52.60
2018-12-27T11:35:05.713Z,52.70
2018-12-27T11:38:19.433Z,52.80
2018-12-27T11:41:47.578Z,53.10
2018-12-27T11:45:10.205Z,53.30
2018-12-27T11:48:20.058Z,53.40
2018-12-27T11:54:52.367Z,53.70
2018-12-27T11:58:12.788Z,53.80
2018-12-27T12:01:17.180Z,54.10
2018-12-27T12:04:18.860Z,54.50
2018-12-27T12:07:31.904Z,54.60
2018-12-27T12:10:34.439Z,54.70
2018-12-27T12:17:00.019Z,55.00
2018-12-27T12:20:00.632Z,55.00
2018-12-27T12:26:16.014Z,55.10
2018-12-27T12:29:29.211Z,55.40
2018-12-27T12:32:53.588Z,55.70
2018-12-27T12:39:18.464Z,55.70
2018-12-27T12:42:17.400Z,55.80
2018-12-27T12:45:28.138Z,55.30
2018-12-27T12:48:28.543Z,56.10
2018-12-27T12:54:52.001Z,56.10
2018-12-27T12:58:05.100Z,56.20
2018-12-27T13:01:02.173Z,56.20
2018-12-27T13:03:59.247Z,56.30
2018-12-27T13:07:02.334Z,56.20
2018-12-27T13:10:00.725Z,56.20
2018-12-27T13:13:00.670Z,56.80
2018-12-27T13:15:58.785Z,56.30
2018-12-27T13:18:56.372Z,56.20
2018-12-27T13:21:54.670Z,56.00
2018-12-27T13:24:59.285Z,56.10
2018-12-27T13:28:05.272Z,56.20
2018-12-27T13:31:05.027Z,56.30
2018-12-27T13:34:10.360Z,56.20
2018-12-27T13:37:26.352Z,56.20
2018-12-27T13:40:23.500Z,56.10
2018-12-27T13:43:19.727Z,55.80
2018-12-27T13:46:15.754Z,55.80
2018-12-27T13:49:15.126Z,55.90
2018-12-27T13:52:08.527Z,55.90
2018-12-27T13:55:04.744Z,55.90
2018-12-27T13:58:01.603Z,55.80
2018-12-27T14:00:58.214Z,55.70
2018-12-27T14:03:57.808Z,55.70
2018-12-27T14:06:54.189Z,55.70
2018-12-27T14:09:50.524Z,55.70
2018-12-27T14:12:46.958Z,55.70
2018-12-27T14:15:43.297Z,55.60
2018-12-27T14:18:39.633Z,55.60
2018-12-27T14:21:35.857Z,55.70
2018-12-27T14:24:31.993Z,55.80
2018-12-27T14:27:34.589Z,55.90
2018-12-27T14:30:27.623Z,56.00
2018-12-27T14:33:24.060Z,55.90
2018-12-27T14:36:20.501Z,56.00
2018-12-27T14:39:17.134Z,56.10
2018-12-27T14:42:13.439Z,56.10
2018-12-27T14:45:14.676Z,56.10
2018-12-27T14:48:07.990Z,56.10
2018-12-27T14:51:03.797Z,56.10
2018-12-27T14:54:00.042Z,56.10
2018-12-27T14:56:56.376Z,56.00
2018-12-27T14:59:52.425Z,56.10
2018-12-27T15:02:48.360Z,56.20
2018-12-27T15:05:44.531Z,56.30
2018-12-27T15:08:40.674Z,56.40
2018-12-27T15:11:37.116Z,56.40
2018-12-27T15:14:33.256Z,56.50
2018-12-27T15:17:30.200Z,56.60
2018-12-27T15:20:26.538Z,56.60
2018-12-27T15:23:22.634Z,56.60
2018-12-27T15:26:18.702Z,56.70
2018-12-27T15:29:15.041Z,56.80
2018-12-27T15:32:11.260Z,56.80
2018-12-27T15:35:08.416Z,56.80
2018-12-27T15:38:05.041Z,56.80
2018-12-27T15:41:01.696Z,56.80
2018-12-27T15:43:58.033Z,56.70
2018-12-27T15:46:54.678Z,56.80
2018-12-27T15:49:50.399Z,57.20
2018-12-27T15:52:46.726Z,57.00
2018-12-27T15:55:42.957Z,57.20
2018-12-27T15:58:39.249Z,57.10
2018-12-27T16:01:39.262Z,57.10
2018-12-27T16:04:32.681Z,57.20
2018-12-27T16:07:29.211Z,57.10
2018-12-27T16:10:25.237Z,57.00
2018-12-27T16:13:21.879Z,56.90
2018-12-27T16:16:18.010Z,56.90
2018-12-27T16:19:14.141Z,56.90
2018-12-27T16:22:13.851Z,56.80
2018-12-27T16:25:10.185Z,56.80
2018-12-27T16:28:06.537Z,56.80
2018-12-27T16:31:03.467Z,56.70
2018-12-27T16:33:59.916Z,56.80
2018-12-27T16:36:56.281Z,56.60
2018-12-27T16:39:52.659Z,56.60
2018-12-27T16:42:49.420Z,56.60
2018-12-27T16:45:45.960Z,56.60
2018-12-27T16:48:45.627Z,56.60
2018-12-27T16:51:41.600Z,56.40
2018-12-27T16:54:37.930Z,56.30
2018-12-27T16:57:33.931Z,56.20
2018-12-27T17:00:33.263Z,56.20
2018-12-27T17:03:32.770Z,56.20
2018-12-27T17:06:29.056Z,56.20
2018-12-27T17:09:25.539Z,56.10
2018-12-27T17:12:22.182Z,56.10
2018-12-27T17:15:19.334Z,56.10
2018-12-27T17:18:15.347Z,56.00
2018-12-27T17:21:11.184Z,55.50
2018-12-27T17:24:07.825Z,55.30
2018-12-27T17:27:03.956Z,55.30
2018-12-27T17:29:59.674Z,55.20
2018-12-27T17:32:55.910Z,55.30
2018-12-27T17:35:51.831Z,55.40
2018-12-27T17:38:47.858Z,55.40
2018-12-27T17:41:43.644Z,55.40
2018-12-27T17:44:39.708Z,55.30
2018-12-27T17:47:36.023Z,55.20
2018-12-27T17:50:33.724Z,55.00
2018-12-27T17:53:28.510Z,54.90
2018-12-27T17:56:24.307Z,54.80
2018-12-27T17:59:20.763Z,54.70
2018-12-27T18:02:19.965Z,54.60
2018-12-27T18:05:16.086Z,54.50
2018-12-27T18:08:12.423Z,54.40
2018-12-27T18:11:08.556Z,54.30
2018-12-27T18:14:04.391Z,54.20
2018-12-27T18:17:00.117Z,54.10
2018-12-27T18:19:56.326Z,54.20
2018-12-27T18:22:52.797Z,54.10
2018-12-27T18:25:49.228Z,54.00
2018-12-27T18:28:45.736Z,53.90
2018-12-27T18:31:41.514Z,53.80
2018-12-27T18:34:38.098Z,53.70
2018-12-27T18:37:37.604Z,53.60
2018-12-27T18:40:31.282Z,53.60
2018-12-27T18:43:27.511Z,53.40
2018-12-27T18:46:26.687Z,53.20
2018-12-27T18:49:22.891Z,53.10
2018-12-27T18:52:19.182Z,53.00
2018-12-27T18:55:20.042Z,52.90
2018-12-27T18:58:12.628Z,52.80
2018-12-27T19:01:08.279Z,52.90
2018-12-27T19:04:04.294Z,52.70
2018-12-27T19:07:00.444Z,52.70
2018-12-27T19:09:56.280Z,52.50
2018-12-27T19:13:22.600Z,52.50
2018-12-27T19:16:18.944Z,52.40
2018-12-27T19:19:19.354Z,52.40
2018-12-27T19:22:28.584Z,52.20
2018-12-27T19:25:27.602Z,52.30
2018-12-27T19:28:24.235Z,52.20
2018-12-27T19:31:20.572Z,52.00
2018-12-27T19:34:16.707Z,51.80
2018-12-27T19:37:13.137Z,51.60
2018-12-27T19:40:11.812Z,51.40
2018-12-27T19:43:07.952Z,51.40
2018-12-27T19:46:04.279Z,51.40
2018-12-27T19:49:00.521Z,51.40
2018-12-27T19:51:56.743Z,51.30
2018-12-27T19:54:53.083Z,51.30
2018-12-27T19:57:49.114Z,51.20
2018-12-27T20:00:45.231Z,51.10
2018-12-27T20:03:41.783Z,51.20
2018-12-27T20:06:37.540Z,51.30
2018-12-27T20:09:33.435Z,51.20
2018-12-27T20:12:30.169Z,51.00
2018-12-27T20:15:26.326Z,50.80
2018-12-27T20:18:22.054Z,50.90
2018-12-27T20:21:18.452Z,50.80
2018-12-27T20:24:18.576Z,50.60
2018-12-27T20:27:12.149Z,50.50
2018-12-27T20:30:08.578Z,50.30
2018-12-27T20:33:05.327Z,50.20
2018-12-27T20:36:04.306Z,50.00
2018-12-27T20:39:00.863Z,50.00
2018-12-27T20:41:57.298Z,50.00
2018-12-27T20:44:53.733Z,50.20
2018-12-27T20:47:49.417Z,50.40
2018-12-27T20:50:47.938Z,50.40
2018-12-27T20:53:43.825Z,50.40
2018-12-27T20:56:40.101Z,50.40
2018-12-27T20:59:36.247Z,50.60
2018-12-27T21:02:32.568Z,50.80
2018-12-27T21:05:28.584Z,50.80
2018-12-27T21:08:25.122Z,50.70
2018-12-27T21:11:21.681Z,50.60
2018-12-27T21:14:17.894Z,50.50
2018-12-27T21:17:14.535Z,50.30
2018-12-27T21:20:10.665Z,50.20
2018-12-27T21:23:06.996Z,50.10
2018-12-27T21:26:03.230Z,50.10
2018-12-27T21:28:59.254Z,50.10
2018-12-27T21:31:56.044Z,50.10
2018-12-27T21:34:52.440Z,50.10
2018-12-27T21:37:48.969Z,50.10
2018-12-27T21:40:45.105Z,50.30
2018-12-27T21:43:41.443Z,50.30
2018-12-27T21:46:37.670Z,50.10
2018-12-27T21:49:33.704Z,50.00
2018-12-27T21:52:30.447Z,50.00
2018-12-27T21:55:30.295Z,49.90
2018-12-27T21:58:23.497Z,49.80
2018-12-27T22:01:19.736Z,49.90
2018-12-27T22:04:16.296Z,50.00
2018-12-27T22:07:12.728Z,50.10
2018-12-27T22:10:09.112Z,49.90
2018-12-27T22:13:05.706Z,49.90
2018-12-27T22:16:01.892Z,50.10
2018-12-27T22:18:58.110Z,50.20
2018-12-27T22:21:54.181Z,50.10
2018-12-27T22:24:50.316Z,50.10
2018-12-27T22:27:45.988Z,50.10
2018-12-27T22:30:42.175Z,50.10
2018-12-27T22:33:38.216Z,50.00
2018-12-27T22:36:34.416Z,49.90
2018-12-27T22:39:30.665Z,49.90
2018-12-27T22:42:29.350Z,50.00
2018-12-27T22:45:25.398Z,50.00
2018-12-27T22:48:23.766Z,49.90
2018-12-27T22:51:19.480Z,50.00
2018-12-27T22:54:16.017Z,49.80
2018-12-27T22:57:12.153Z,49.80
2018-12-27T23:00:09.397Z,49.80
2018-12-27T23:03:05.681Z,49.80
2018-12-27T23:06:04.562Z,49.90
2018-12-27T23:09:00.899Z,50.00
2018-12-27T23:11:57.717Z,49.90
2018-12-27T23:14:54.334Z,50.00
2018-12-27T23:17:56.227Z,50.10
2018-12-27T23:20:52.555Z,50.10
2018-12-27T23:23:48.579Z,50.20
2018-12-27T23:26:48.797Z,50.30
2018-12-27T23:29:45.442Z,50.20
2018-12-27T23:32:41.478Z,50.30
2018-12-27T23:35:37.750Z,50.30
2018-12-27T23:38:33.651Z,50.40
2018-12-27T23:41:29.356Z,50.30
2018-12-27T23:44:25.673Z,50.30
2018-12-27T23:47:21.511Z,50.30
2018-12-27T23:50:20.818Z,50.30
2018-12-27T23:53:13.991Z,50.40
2018-12-27T23:56:10.192Z,50.30
2018-12-27T23:59:06.247Z,50.50
